Time;durP1;ratioP1;P1;durP2;ratioP2;P2;SDS_P1;SDS_P2;PMS_P1;PMS_P2;Temp;Humidity;BMP_temperature;BMP_pressure;BME280_temperature;BME280_humidity;BME280_pressure;Samples;Min_cycle;Max_cycle;Signal;HPM_P1;HPM_P2
2022/01/11 00:01:51;;;;;;;26.65;13.15;;;;;;;-2.30;77.81;99209.79;1727059;82;20966;-56
2022/01/11 00:04:18;;;;;;;24.95;12.58;;;;;;;-2.28;77.67;99218.91;1737071;82;21019;-56
2022/01/11 00:06:51;;;;;;;24.75;12.50;;;;;;;-2.28;78.13;99210.94;1730147;82;21078;-56
2022/01/11 00:09:31;;;;;;;26.33;12.50;;;;;;;-2.21;78.13;99215.92;1711668;83;21343;-57
2022/01/11 00:11:47;;;;;;;22.22;12.55;;;;;;;-2.25;77.50;99213.25;1725335;82;20988;-57
2022/01/11 00:14:14;;;;;;;23.27;11.03;;;;;;;-2.25;77.40;99214.58;1737115;82;21460;-57
2022/01/11 00:16:42;;;;;;;23.52;11.05;;;;;;;-2.25;77.10;99226.53;1736230;82;38590;-57
2022/01/11 00:19:09;;;;;;;24.07;11.95;;;;;;;-2.34;77.26;99231.52;1736844;82;20977;-59
2022/01/11 00:21:44;;;;;;;21.42;11.60;;;;;;;-2.30;77.39;99224.39;1731478;82;21351;-57
2022/01/11 00:26:51;;;;;;;23.25;11.60;;;;;;;-2.41;77.19;99227.88;1712740;82;20435;-57
2022/01/11 00:29:18;;;;;;;22.25;12.85;;;;;;;-2.47;76.24;99230.72;1712476;83;21023;-57
2022/01/11 00:31:46;;;;;;;24.70;11.57;;;;;;;-2.49;76.84;99227.88;1725893;82;21076;-57
2022/01/11 00:34:16;;;;;;;18.20;10.50;;;;;;;-2.44;75.61;99238.84;1736966;82;21303;-57
2022/01/11 00:36:42;;;;;;;22.00;11.33;;;;;;;-2.53;74.02;99243.82;1736734;82;21021;-57
2022/01/11 00:39:10;;;;;;;25.70;12.25;;;;;;;-2.48;75.36;99250.27;1737385;82;21358;-57
2022/01/11 00:41:41;;;;;;;24.72;11.85;;;;;;;-2.44;74.85;99248.95;1724462;82;21966;-57
2022/01/11 00:44:09;;;;;;;22.45;11.30;;;;;;;-2.45;74.60;99247.80;1712509;82;21061;-57
2022/01/11 00:46:35;;;;;;;21.70;10.43;;;;;;;-2.52;74.16;99248.95;1710380;82;21015;-57
2022/01/11 00:49:03;;;;;;;26.15;12.50;;;;;;;-2.51;74.44;99260.40;1752424;80;20970;-57
2022/01/11 00:51:30;;;;;;;17.87;10.05;;;;;;;-2.54;74.37;99254.11;1750030;80;20989;-57
2022/01/11 00:53:57;;;;;;;21.65;11.60;;;;;;;-2.65;74.09;99255.23;1737024;82;21512;-56
2022/01/11 00:56:24;;;;;;;28.20;14.98;;;;;;;-2.58;74.79;99257.57;1733680;82;21501;-56
2022/01/11 00:58:51;;;;;;;21.68;11.43;;;;;;;-2.50;75.11;99250.94;1712579;83;21326;-56
2022/01/11 01:01:18;;;;;;;35.83;15.40;;;;;;;-2.45;75.08;99249.13;1724676;82;20996;-57
2022/01/11 01:03:45;;;;;;;25.75;13.18;;;;;;;-2.43;75.52;99250.61;1736988;82;21020;-57
2022/01/11 01:06:12;;;;;;;24.02;12.40;;;;;;;-2.42;74.88;99247.45;1736808;82;21013;-57
2022/01/11 01:08:39;;;;;;;23.07;12.35;;;;;;;-2.38;74.98;99254.94;1737234;82;21071;-57
2022/01/11 01:11:06;;;;;;;25.25;13.68;;;;;;;-2.28;75.26;99251.59;1733751;82;21802;-57
2022/01/11 01:13:33;;;;;;;24.55;11.45;;;;;;;-2.20;75.44;99259.23;1712268;83;20968;-57
2022/01/11 01:15:59;;;;;;;27.58;13.38;;;;;;;-2.24;74.68;99254.73;1721110;82;21021;-57
2022/01/11 01:18:28;;;;;;;32.83;14.78;;;;;;;-2.19;74.70;99253.75;1737113;82;21020;-57
2022/01/11 01:20:55;;;;;;;21.25;11.90;;;;;;;-2.17;74.70;99266.35;1736935;82;21016;-56
2022/01/11 01:23:22;;;;;;;32.55;13.32;;;;;;;-2.14;74.61;99263.85;1736736;82;21460;-56
2022/01/11 01:25:49;;;;;;;32.25;15.23;;;;;;;-2.06;75.02;99266.50;1716438;82;20984;-56
2022/01/11 01:28:17;;;;;;;27.98;13.13;;;;;;;-2.05;74.23;99266.83;1737102;82;21433;-57
2022/01/11 01:30:46;;;;;;;29.77;13.40;;;;;;;-2.00;74.68;99267.98;1718376;82;21445;-57
2022/01/11 01:33:13;;;;;;;20.67;10.67;;;;;;;-2.05;74.23;99266.35;1737388;82;21048;-56
2022/01/11 01:35:42;;;;;;;18.90;9.73;;;;;;;-2.05;73.85;99266.83;1735319;82;21461;-57
2022/01/11 01:38:09;;;;;;;18.27;9.23;;;;;;;-2.03;73.27;99261.70;1693281;82;28036;-57
2022/01/11 01:40:45;;;;;;;15.60;7.95;;;;;;;-2.04;73.11;99263.20;1695454;82;20999;-56
2022/01/11 01:43:08;;;;;;;19.92;10.60;;;;;;;-2.11;72.26;99257.72;1712204;82;21058;-56
2022/01/11 01:45:36;;;;;;;;;;;;;;;-2.10;72.16;99263.86;1719879;82;21469;-56
2022/01/11 01:48:03;;;;;;;21.70;10.88;;;;;;;-2.08;72.53;99260.53;1727118;82;20933;-56
2022/01/11 01:50:30;;;;;;;23.25;12.13;;;;;;;-2.18;71.65;99265.20;1705733;82;21001;-57
2022/01/11 01:52:58;;;;;;;22.45;10.63;;;;;;;-2.13;72.19;99270.34;1737115;82;21453;-57
2022/01/11 01:55:25;;;;;;;21.75;10.48;;;;;;;-2.15;71.25;99270.16;1733063;82;21483;-57
2022/01/11 01:57:52;;;;;;;23.85;9.90;;;;;;;-2.13;71.56;99272.17;1712559;82;21058;-57
2022/01/11 02:00:20;;;;;;;22.90;11.60;;;;;;;-2.19;71.63;99277.65;1715096;82;21403;-56
2022/01/11 02:02:46;;;;;;;18.55;10.28;;;;;;;-2.23;71.28;99272.33;1737029;82;21000;-56
2022/01/11 02:05:13;;;;;;;27.20;11.97;;;;;;;-2.16;72.02;99272.49;1736946;82;21510;-57
2022/01/11 02:07:40;;;;;;;23.25;11.35;;;;;;;-2.19;71.48;99273.66;1737025;82;20993;-57
2022/01/11 02:10:09;;;;;;;25.00;12.07;;;;;;;-2.16;72.25;99271.99;1737003;82;21012;-57
2022/01/11 02:12:36;;;;;;;22.73;10.78;;;;;;;-2.09;72.70;99277.47;1722075;82;21684;-57
2022/01/11 02:15:03;;;;;;;20.95;10.10;;;;;;;-2.07;72.45;99280.78;1702027;83;21051;-56
2022/01/11 02:17:32;;;;;;;20.68;11.22;;;;;;;-2.06;72.01;99277.95;1726597;82;21528;-57
2022/01/11 02:19:59;;;;;;;20.77;12.05;;;;;;;-2.01;73.04;99279.61;1737147;82;22027;-56
2022/01/11 02:22:26;;;;;;;20.92;11.05;;;;;;;-1.99;73.27;99276.78;1736970;82;21080;-57
2022/01/11 02:24:53;;;;;;;23.40;11.95;;;;;;;-1.87;73.52;99279.44;1736686;82;22197;-57
2022/01/11 02:27:20;;;;;;;27.42;11.38;;;;;;;-1.82;72.73;99278.91;1733175;82;20984;-57
2022/01/11 02:29:47;;;;;;;19.35;12.18;;;;;;;-1.83;73.00;99275.42;1737152;82;21075;-57
2022/01/11 02:32:14;;;;;;;24.18;11.83;;;;;;;-1.76;73.40;99283.55;1736065;82;21485;-57
2022/01/11 02:34:41;;;;;;;32.50;14.18;;;;;;;-1.70;73.73;99280.22;1737193;82;21072;-57
2022/01/11 02:37:08;;;;;;;29.27;15.28;;;;;;;-1.68;73.57;99284.03;1707164;82;21260;-57
2022/01/11 02:39:35;;;;;;;29.65;15.13;;;;;;;-1.75;73.49;99283.38;1690633;84;20969;-56
2022/01/11 02:42:02;;;;;;;29.60;13.72;;;;;;;-1.72;73.60;99288.84;1724664;82;21024;-56
2022/01/11 02:44:29;;;;;;;27.52;13.58;;;;;;;-1.70;73.26;99288.20;1737191;82;21024;-56
2022/01/11 02:46:56;;;;;;;25.92;12.50;;;;;;;-1.70;72.99;99293.52;1726336;82;21490;-57
2022/01/11 02:49:23;;;;;;;31.12;13.95;;;;;;;-1.68;72.78;99292.01;1711037;82;21276;-57
2022/01/11 02:51:50;;;;;;;22.82;12.13;;;;;;;-1.69;72.33;99294.34;1711085;82;21046;-57
2022/01/11 02:54:16;;;;;;;25.48;12.35;;;;;;;-1.66;72.51;99292.16;1712712;83;21027;-57
2022/01/11 02:56:43;;;;;;;32.25;14.45;;;;;;;-1.64;72.64;99301.28;1729011;82;21520;-57
2022/01/11 02:59:10;;;;;;;24.98;12.58;;;;;;;-1.64;72.66;99299.95;1737075;82;20965;-57
2022/01/11 03:01:37;;;;;;;30.17;14.28;;;;;;;-1.68;72.14;99298.66;1736955;82;21060;-57
2022/01/11 03:04:04;;;;;;;31.90;15.58;;;;;;;-1.69;72.50;99295.67;1737477;82;21053;-56
2022/01/11 03:06:31;;;;;;;30.65;13.90;;;;;;;-1.72;72.37;99304.79;1733701;82;21255;-57
2022/01/11 03:08:58;;;;;;;29.65;15.15;;;;;;;-1.72;72.66;99304.29;1737153;82;21008;-57
2022/01/11 03:11:31;;;;;;;29.40;14.68;;;;;;;-1.69;72.96;99306.30;1736968;82;21410;-57
2022/01/11 03:13:54;;;;;;;32.53;15.98;;;;;;;-1.67;73.20;99310.44;1722296;82;25206;-56
2022/01/11 03:16:21;;;;;;;38.40;17.25;;;;;;;-1.57;73.58;99307.08;1706965;82;21014;-57
2022/01/11 03:18:48;;;;;;;30.80;14.58;;;;;;;-1.58;73.04;99304.09;1712537;82;21403;-57
2022/01/11 03:21:15;;;;;;;27.32;13.75;;;;;;;-1.62;73.08;99304.59;1720322;82;21014;-56
2022/01/11 03:23:42;;;;;;;27.07;13.45;;;;;;;-1.65;73.13;99304.45;1737270;82;21000;-57
2022/01/11 03:26:09;;;;;;;29.45;14.07;;;;;;;-1.62;73.47;99306.78;1725708;82;21033;-57
2022/01/11 03:28:36;;;;;;;33.18;15.83;;;;;;;-1.67;73.21;99305.63;1712865;83;20983;-57
2022/01/11 03:31:03;;;;;;;30.35;16.23;;;;;;;-1.67;73.19;99313.09;1718882;82;21386;-57
2022/01/11 03:33:30;;;;;;;37.88;18.77;;;;;;;-1.58;73.76;99310.74;1712842;82;21444;-56
2022/01/11 03:35:57;;;;;;;29.75;15.32;;;;;;;-1.56;73.57;99313.23;1712306;82;20999;-57
2022/01/11 03:38:24;;;;;;;33.83;16.37;;;;;;;-1.57;73.12;99311.07;1712687;82;21409;-56
2022/01/11 03:40:51;;;;;;;31.33;16.75;;;;;;;-1.65;72.14;99316.91;1720339;82;20996;-56
2022/01/11 03:43:21;;;;;;;32.45;15.93;;;;;;;-1.64;71.97;99318.56;1736904;82;21012;-56
2022/01/11 03:45:47;;;;;;;32.03;16.85;;;;;;;-1.72;71.25;99317.58;1736638;82;21005;-56
2022/01/11 03:48:15;;;;;;;37.83;17.80;;;;;;;-1.73;72.15;99316.42;1725202;82;21024;-56
2022/01/11 03:50:48;;;;;;;39.83;18.52;;;;;;;-1.71;72.61;99321.06;1708787;82;21574;-56
2022/01/11 03:53:15;;;;;;;34.45;17.75;;;;;;;-1.65;73.01;99316.91;1736679;82;21001;-56
2022/01/11 03:58:26;;;;;;;37.67;18.57;;;;;;;-1.73;72.35;99319.91;1712673;82;21038;-56
2022/01/11 04:00:50;;;;;;;43.55;19.92;;;;;;;-1.76;71.31;99320.76;1711926;82;21407;-56
2022/01/11 04:03:17;;;;;;;34.75;17.67;;;;;;;-1.83;71.22;99325.08;1734771;82;21421;-56
2022/01/11 04:05:46;;;;;;;35.00;19.50;;;;;;;-1.82;72.04;99328.07;1733719;82;21056;-56
2022/01/11 04:08:13;;;;;;;38.02;20.48;;;;;;;-1.84;72.24;99331.41;1712783;82;21050;-56
2022/01/11 04:10:39;;;;;;;44.65;22.95;;;;;;;-1.82;72.14;99330.73;1698262;82;21052;-56
2022/01/11 04:13:06;;;;;;;42.10;20.62;;;;;;;-1.84;72.16;99333.56;1728028;82;21076;-56
2022/01/11 04:15:33;;;;;;;48.20;22.15;;;;;;;-1.86;72.22;99340.88;1707078;82;22139;-56
2022/01/11 04:18:01;;;;;;;34.25;17.30;;;;;;;-1.84;72.45;99340.70;1712790;82;21054;-56
2022/01/11 04:20:28;;;;;;;42.43;20.17;;;;;;;-1.92;72.41;99347.35;1712196;82;21014;-56
2022/01/11 04:22:54;;;;;;;45.90;23.73;;;;;;;-2.05;72.19;99344.72;1712609;82;21017;-56
2022/01/11 04:25:21;;;;;;;40.80;20.88;;;;;;;-2.03;72.40;99349.36;1712285;82;21446;-56
2022/01/11 04:27:48;;;;;;;46.35;22.30;;;;;;;-1.97;72.82;99345.68;1712514;82;21411;-56
2022/01/11 04:30:15;;;;;;;42.00;21.65;;;;;;;-1.93;72.73;99350.51;1714050;82;21059;-56
2022/01/11 04:32:42;;;;;;;45.35;21.62;;;;;;;-1.89;72.65;99351.81;1736623;82;21775;-56
2022/01/11 04:35:12;;;;;;;43.10;20.52;;;;;;;-1.86;72.95;99348.02;1736835;82;21504;-55
2022/01/11 04:37:38;;;;;;;;;;;;;;;-1.86;72.74;99356.82;1716568;82;21510;-56
2022/01/11 04:40:07;;;;;;;54.00;23.05;;;;;;;-1.91;72.49;99357.81;1712675;82;21377;-56
2022/01/11 04:42:33;;;;;;;48.70;23.25;;;;;;;-1.87;73.15;99359.15;1714829;82;21423;-56
2022/01/11 04:45:01;;;;;;;41.48;18.77;;;;;;;-1.82;73.22;99354.64;1712359;83;21019;-56
2022/01/11 04:47:28;;;;;;;41.40;19.98;;;;;;;-1.95;72.71;99360.48;1718366;80;21010;-56
2022/01/11 04:49:55;;;;;;;40.58;19.65;;;;;;;-1.91;73.15;99364.45;1741284;80;21095;-56
2022/01/11 04:52:22;;;;;;;34.33;19.32;;;;;;;-1.84;73.49;99363.29;1714228;82;21948;-56
2022/01/11 04:54:49;;;;;;;35.63;17.32;;;;;;;-1.81;73.44;99371.74;1712419;82;21454;-56
2022/01/11 04:57:16;;;;;;;36.42;17.30;;;;;;;-1.85;72.80;99372.27;1711128;80;21012;-56
2022/01/11 04:59:43;;;;;;;33.20;17.32;;;;;;;-1.86;73.04;99370.61;1707702;83;21017;-56
2022/01/11 05:02:09;;;;;;;32.67;17.30;;;;;;;-1.83;73.11;99376.91;1710808;82;21093;-55
2022/01/11 05:04:36;;;;;;;36.65;19.05;;;;;;;-1.88;72.98;99378.75;1712624;83;21207;-56
2022/01/11 05:07:04;;;;;;;40.38;19.48;;;;;;;-1.92;73.17;99372.59;1712191;82;21484;-56
2022/01/11 05:09:31;;;;;;;41.18;18.30;;;;;;;-1.93;73.62;99374.42;1712461;83;21002;-56
2022/01/11 05:11:58;;;;;;;37.35;15.63;;;;;;;-1.94;73.63;99376.75;1712162;82;20995;-56
2022/01/11 05:14:25;;;;;;;25.85;11.08;;;;;;;-2.04;73.97;99388.05;1712470;83;21014;-56
2022/01/11 05:16:52;;;;;;;23.20;11.83;;;;;;;-2.23;73.64;99389.67;1711960;82;21440;-56
2022/01/11 05:19:18;;;;;;;18.02;9.68;;;;;;;-2.47;73.74;99387.84;1712459;83;21391;-56
2022/01/11 05:21:45;;;;;;;18.05;10.23;;;;;;;-2.67;73.83;99398.71;1712163;82;20998;-56
2022/01/11 05:24:12;;;;;;;20.05;11.88;;;;;;;-2.75;73.98;99393.88;1712400;83;20983;-56
2022/01/11 05:26:39;;;;;;;30.23;13.32;;;;;;;-2.75;74.84;99397.86;1725267;82;21024;-56
2022/01/11 05:29:06;;;;;;;23.87;10.98;;;;;;;-2.67;74.38;99402.69;1737160;82;22165;-56
2022/01/11 05:31:34;;;;;;;23.27;11.25;;;;;;;-2.67;74.24;99397.39;1731871;82;21467;-56
2022/01/11 05:34:02;;;;;;;27.25;12.10;;;;;;;-2.66;74.16;99409.66;1712485;83;21559;-56
2022/01/11 05:36:29;;;;;;;18.47;10.73;;;;;;;-2.72;74.17;99409.00;1726929;82;21443;-55
2022/01/11 05:38:56;;;;;;;18.35;10.35;;;;;;;-2.74;73.64;99411.45;1736916;82;21540;-56
2022/01/11 05:41:23;;;;;;;19.23;10.13;;;;;;;-2.79;73.70;99409.30;1736828;82;21286;-56
2022/01/11 05:43:50;;;;;;;21.10;10.08;;;;;;;-2.88;73.42;99416.89;1736981;82;20996;-56
2022/01/11 05:46:16;;;;;;;20.88;11.20;;;;;;;-2.91;73.72;99419.84;1728357;82;21002;-56
2022/01/11 05:48:45;;;;;;;24.30;13.28;;;;;;;-2.85;73.84;99423.20;1749854;81;21029;-56
2022/01/11 05:51:12;;;;;;;21.30;11.83;;;;;;;-2.92;73.61;99427.47;1754787;80;21020;-56
2022/01/11 05:53:39;;;;;;;19.75;9.33;;;;;;;-2.89;73.46;99422.70;1725369;82;21372;-55
2022/01/11 05:56:06;;;;;;;28.20;15.32;;;;;;;-2.93;73.24;99435.09;1715175;82;20986;-56
2022/01/11 05:58:33;;;;;;;24.90;11.85;;;;;;;-2.96;73.63;99440.23;1730219;82;21496;-56
2022/01/11 06:01:00;;;;;;;25.60;13.05;;;;;;;-2.95;73.47;99440.56;1712362;82;21016;-56
2022/01/11 06:03:27;;;;;;;24.65;10.28;;;;;;;-2.92;73.55;99436.76;1725616;82;21063;-56
2022/01/11 06:05:54;;;;;;;24.37;13.45;;;;;;;-2.98;73.34;99442.22;1717541;82;21390;-56
2022/01/11 06:08:21;;;;;;;29.45;14.47;;;;;;;-2.93;73.02;99443.05;1714100;82;20975;-56
2022/01/11 06:10:48;;;;;;;24.32;13.38;;;;;;;-2.86;73.17;99444.09;1713183;82;21474;-56
2022/01/11 06:13:15;;;;;;;18.12;11.18;;;;;;;-2.82;73.45;99453.38;1692348;82;20988;-56
2022/01/11 06:15:42;;;;;;;24.52;11.85;;;;;;;-2.94;72.92;99452.84;1693490;82;21083;-56
2022/01/11 06:18:09;;;;;;;25.02;11.75;;;;;;;-2.85;73.34;99458.52;1733469;82;21336;-56
2022/01/11 06:20:35;;;;;;;23.27;10.95;;;;;;;-2.87;72.44;99458.34;1710024;82;21122;-56
2022/01/11 06:23:02;;;;;;;29.32;13.13;;;;;;;-2.98;72.51;99467.42;1712790;82;20980;-56
2022/01/11 06:25:29;;;;;;;23.90;13.13;;;;;;;-3.02;72.86;99474.02;1716739;82;21468;-56
2022/01/11 06:27:56;;;;;;;28.47;14.98;;;;;;;-2.97;73.08;99466.43;1736266;82;20996;-56
2022/01/11 06:30:23;;;;;;;41.25;19.50;;;;;;;-2.96;72.73;99466.77;1705366;82;21398;-56
2022/01/11 06:32:50;;;;;;;28.20;14.20;;;;;;;-2.81;73.18;99476.80;1729787;82;20973;-56
2022/01/11 06:35:18;;;;;;;29.10;15.08;;;;;;;-2.76;73.19;99480.61;1736815;82;21441;-56
2022/01/11 06:37:45;;;;;;;34.65;16.45;;;;;;;-2.71;73.07;99486.28;1712688;82;21029;-56
2022/01/11 06:40:13;;;;;;;25.10;13.25;;;;;;;-2.78;72.61;99495.03;1715044;82;22109;-56
2022/01/11 06:42:40;;;;;;;23.67;10.53;;;;;;;-2.81;72.33;99498.02;1711346;82;22122;-56
2022/01/11 06:45:09;;;;;;;21.02;11.63;;;;;;;-2.83;72.37;99502.12;1712480;82;21015;-56
2022/01/11 06:47:36;;;;;;;23.18;11.90;;;;;;;-2.82;72.67;99506.44;1730900;82;22125;-56
2022/01/11 06:50:03;;;;;;;28.73;11.83;;;;;;;-2.81;72.59;99514.77;1707803;84;20969;-56
2022/01/11 06:52:30;;;;;;;25.00;12.80;;;;;;;-2.89;72.68;99514.22;1711662;82;20983;-56
2022/01/11 06:54:57;;;;;;;25.35;13.68;;;;;;;-2.93;72.83;99520.81;1712603;83;21393;-56
2022/01/11 06:57:24;;;;;;;23.32;12.28;;;;;;;-2.95;72.58;99524.12;1713994;80;21072;-56
2022/01/11 06:59:51;;;;;;;24.65;11.80;;;;;;;-2.98;72.51;99528.43;1707837;84;21001;-56
2022/01/11 07:02:18;;;;;;;24.55;12.18;;;;;;;-2.97;72.59;99528.77;1714363;82;21012;-56
2022/01/11 07:04:45;;;;;;;27.80;13.45;;;;;;;-3.01;72.04;99534.03;1719116;82;21437;-56
2022/01/11 07:07:11;;;;;;;25.20;12.82;;;;;;;-3.01;72.41;99535.84;1713413;82;21457;-56
2022/01/11 07:09:38;;;;;;;21.90;10.98;;;;;;;-2.93;72.70;99546.02;1713942;82;21098;-56
2022/01/11 07:12:07;;;;;;;21.68;11.85;;;;;;;-2.98;72.43;99550.98;1702404;82;21016;-56
2022/01/11 07:14:34;;;;;;;16.85;10.03;;;;;;;-3.03;72.40;99555.91;1718748;82;21055;-56
2022/01/11 07:17:01;;;;;;;25.27;13.62;;;;;;;-3.13;72.61;99561.31;1723661;82;20976;-56
2022/01/11 07:19:29;;;;;;;25.02;11.93;;;;;;;-3.11;73.03;99571.75;1711376;82;21072;-56
2022/01/11 07:21:59;;;;;;;22.93;10.38;;;;;;;-3.03;72.51;99575.80;1702562;82;21011;-56
2022/01/11 07:24:25;;;;;;;;;;;;;;;-3.06;72.85;99569.48;1722463;82;21057;-56
2022/01/11 07:26:55;;;;;;;40.28;18.20;;;;;;;-2.95;72.74;99568.39;1719807;82;20192;-55
2022/01/11 07:29:22;;;;;;;53.28;22.27;;;;;;;-2.94;72.85;99572.70;1713778;82;21044;-55
2022/01/11 07:31:48;;;;;;;26.15;13.22;;;;;;;-2.84;72.94;99574.75;1713220;82;21060;-57
2022/01/11 07:34:16;;;;;;;29.82;12.85;;;;;;;-2.84;72.39;99580.89;1710317;82;20985;-57
2022/01/11 07:36:43;;;;;;;21.97;10.95;;;;;;;-2.92;71.93;99587.47;1712746;82;21111;-57
2022/01/11 07:39:12;;;;;;;25.30;13.58;;;;;;;-2.91;72.60;99586.48;1717624;82;21543;-56
2022/01/11 07:41:40;;;;;;;;;;;;;;;-2.84;72.19;99587.53;1717944;82;22262;-56
2022/01/11 07:44:07;;;;;;;31.05;12.95;;;;;;;-2.76;72.16;99581.44;1708614;82;21329;-56
2022/01/11 07:46:34;;;;;;;28.15;14.13;;;;;;;-2.68;72.21;99582.82;1708273;82;21117;-56
2022/01/11 07:49:02;;;;;;;21.17;11.38;;;;;;;-2.79;71.83;99585.75;1722027;82;21088;-56
2022/01/11 07:51:29;;;;;;;25.73;13.67;;;;;;;-3.01;71.53;99588.41;1712439;82;21060;-55
2022/01/11 07:53:56;;;;;;;32.15;12.40;;;;;;;-2.84;72.37;99590.18;1722436;82;21431;-56
2022/01/11 07:56:23;;;;;;;29.10;13.72;;;;;;;-2.72;71.53;99592.59;1712190;82;20981;-57
2022/01/11 07:58:50;;;;;;;32.25;15.58;;;;;;;-2.58;71.56;99589.34;1715225;82;21178;-56
2022/01/11 08:01:17;;;;;;;27.22;14.15;;;;;;;-2.60;70.98;99592.16;1711621;82;22556;-56
2022/01/11 08:03:46;;;;;;;24.60;13.38;;;;;;;-2.47;70.99;99589.09;1722355;82;21008;-56
2022/01/11 08:06:13;;;;;;;24.92;13.55;;;;;;;-2.57;70.07;99591.00;1714778;82;21107;-56
2022/01/11 08:08:41;;;;;;;29.65;15.65;;;;;;;-2.46;70.57;99594.73;1713657;82;21490;-56
2022/01/11 08:11:08;;;;;;;30.32;13.65;;;;;;;-2.34;70.50;99594.78;1716894;82;20989;-55
2022/01/11 08:13:35;;;;;;;25.27;13.08;;;;;;;-2.44;69.84;99599.88;1699814;82;21514;-56
2022/01/11 08:16:02;;;;;;;28.40;12.78;;;;;;;-2.43;69.88;99602.88;1719820;82;21072;-55
2022/01/11 08:18:29;;;;;;;27.98;13.90;;;;;;;-2.40;69.84;99600.72;1711097;82;21001;-56
2022/01/11 08:20:56;;;;;;;24.00;12.55;;;;;;;-2.44;69.84;99603.86;1715938;82;21456;-56
2022/01/11 08:23:23;;;;;;;26.37;12.50;;;;;;;-2.30;70.18;99599.30;1712350;82;21040;-56
2022/01/11 08:25:50;;;;;;;27.10;13.43;;;;;;;-2.37;69.85;99602.25;1716161;82;21029;-55
2022/01/11 08:28:17;;;;;;;24.55;11.03;;;;;;;-2.23;70.42;99597.64;1715895;82;21504;-56
2022/01/11 08:30:43;;;;;;;23.18;12.73;;;;;;;-2.26;69.36;99601.95;1720024;82;21009;-57
2022/01/11 08:33:12;;;;;;;25.85;13.18;;;;;;;-2.05;70.35;99605.05;1716220;82;20989;-56
2022/01/11 08:35:39;;;;;;;25.17;12.20;;;;;;;-2.22;69.31;99598.48;1714295;82;21087;-56
2022/01/11 08:38:06;;;;;;;21.60;11.20;;;;;;;-2.13;69.15;99604.19;1717038;82;21119;-55
2022/01/11 08:40:33;;;;;;;19.02;10.60;;;;;;;-1.87;70.10;99608.09;1718371;82;21001;-57
2022/01/11 08:43:02;;;;;;;21.05;10.82;;;;;;;-1.71;70.22;99608.12;1713267;82;21702;-55
2022/01/11 08:45:28;;;;;;;20.20;11.18;;;;;;;-1.63;68.60;99609.97;1716826;82;25788;-56
2022/01/11 08:47:55;;;;;;;18.75;10.43;;;;;;;-1.66;67.74;99608.47;1714944;82;21020;-55
2022/01/11 08:50:22;;;;;;;25.32;12.73;;;;;;;-1.65;68.75;99607.47;1712807;82;21572;-56
2022/01/11 08:52:50;;;;;;;20.25;10.08;;;;;;;-1.78;67.71;99605.80;1719563;82;20982;-57
2022/01/11 08:55:16;;;;;;;19.75;9.78;;;;;;;-1.77;68.31;99606.13;1725122;82;21006;-55
2022/01/11 08:57:44;;;;;;;21.10;11.35;;;;;;;-1.72;68.26;99606.45;1717548;82;21578;-57
2022/01/11 09:00:18;;;;;;;17.92;11.12;;;;;;;-1.74;67.85;99607.13;1717392;82;21474;-56
2022/01/11 09:02:52;;;;;;;21.65;10.50;;;;;;;-1.79;67.52;99604.97;1712122;82;21042;-56
2022/01/11 09:05:21;;;;;;;21.85;10.85;;;;;;;-1.73;67.73;99608.28;1708715;82;21678;-56
2022/01/11 09:07:48;;;;;;;21.42;9.53;;;;;;;-1.77;67.95;99608.29;1710500;82;21091;-55
2022/01/11 09:10:15;;;;;;;17.30;9.25;;;;;;;-1.66;67.93;99609.80;1711138;82;21714;-56
2022/01/11 09:12:43;;;;;;;15.08;9.68;;;;;;;-1.67;67.50;99611.30;1707855;82;20969;-57
2022/01/11 09:15:10;;;;;;;17.10;8.88;;;;;;;-1.65;67.87;99614.62;1716867;82;20977;-56
2022/01/11 09:17:37;;;;;;;17.07;9.40;;;;;;;-1.69;67.88;99613.30;1700809;82;21027;-56
2022/01/11 09:20:05;;;;;;;20.72;10.32;;;;;;;-1.64;68.38;99607.80;1721817;82;22351;-57
2022/01/11 09:22:32;;;;;;;19.27;10.50;;;;;;;-1.53;68.46;99612.01;1699833;82;21035;-56
2022/01/11 09:24:59;;;;;;;17.45;8.63;;;;;;;-1.69;68.40;99615.95;1724222;82;21193;-56
2022/01/11 09:27:26;;;;;;;17.67;9.48;;;;;;;-1.82;68.40;99614.58;1708522;82;21004;-57
2022/01/11 09:29:53;;;;;;;19.60;10.15;;;;;;;-1.69;68.70;99617.28;1723751;82;21536;-57
2022/01/11 09:32:20;;;;;;;21.62;10.13;;;;;;;-1.70;68.68;99613.80;1713306;82;21130;-57
2022/01/11 09:34:47;;;;;;;19.35;9.93;;;;;;;-1.64;68.88;99613.63;1710840;82;22046;-55
2022/01/11 09:37:14;;;;;;;19.23;10.38;;;;;;;-1.93;68.19;99614.88;1714401;82;21061;-56
2022/01/11 09:39:43;;;;;;;19.67;10.23;;;;;;;-1.80;68.71;99619.22;1717293;82;21048;-56
2022/01/11 09:42:10;;;;;;;22.73;9.95;;;;;;;-1.60;68.51;99612.31;1705283;82;20957;-56
2022/01/11 09:44:38;;;;;;;18.15;10.65;;;;;;;-1.37;68.47;99613.33;1717757;82;21004;-56
2022/01/11 09:47:12;;;;;;;15.45;9.33;;;;;;;-1.38;67.54;99617.48;1720052;82;21154;-56
2022/01/11 09:49:40;;;;;;;18.95;10.03;;;;;;;-1.45;66.66;99615.51;1717621;82;21064;-56
2022/01/11 09:52:08;;;;;;;16.67;9.30;;;;;;;-1.28;67.75;99619.49;1719113;82;21084;-55
2022/01/11 09:54:40;;;;;;;16.90;9.10;;;;;;;-1.34;66.22;99611.69;1700991;82;21029;-57
2022/01/11 09:57:07;;;;;;;17.98;8.95;;;;;;;-1.51;66.27;99617.48;1713988;82;21057;-56
2022/01/11 09:59:34;;;;;;;14.73;9.30;;;;;;;-1.48;66.58;99607.84;1723169;82;21067;-57
2022/01/11 10:02:01;;;;;;;18.77;9.13;;;;;;;-1.51;67.47;99604.69;1719532;82;21017;-56
2022/01/11 10:04:31;;;;;;;15.40;8.98;;;;;;;-1.32;67.14;99604.37;1718571;82;20996;-57
2022/01/11 10:07:01;;;;;;;18.25;9.03;;;;;;;-1.29;66.58;99605.86;1718075;82;20992;-57
2022/01/11 10:09:31;;;;;;;14.83;7.80;;;;;;;-1.13;66.72;99603.22;1715866;82;21043;-57
2022/01/11 10:11:59;;;;;;;16.80;8.43;;;;;;;-1.22;65.84;99597.06;1719079;82;21035;-56
2022/01/11 10:14:31;;;;;;;13.18;8.15;;;;;;;-0.98;67.28;99598.06;1704537;82;20984;-56
2022/01/11 10:17:21;;;;;;;20.40;9.85;;;;;;;-0.99;65.54;99601.23;1717296;82;21094;-56
2022/01/11 10:20:07;;;;;;;15.72;9.10;;;;;;;-1.03;64.98;99597.22;1717424;82;21001;-57
2022/01/11 10:22:34;;;;;;;20.52;10.10;;;;;;;-0.97;65.57;99597.06;1718224;82;20981;-56
2022/01/11 10:25:02;;;;;;;16.25;8.25;;;;;;;-0.82;65.67;99595.39;1719622;82;21549;-56
2022/01/11 10:27:36;;;;;;;20.35;9.48;;;;;;;-0.78;65.77;99595.88;1713571;82;21517;-57
2022/01/11 10:30:10;;;;;;;12.80;8.75;;;;;;;-0.91;65.65;99593.73;1721899;82;21071;-56
2022/01/11 10:32:45;;;;;;;15.45;8.78;;;;;;;-0.76;66.63;99593.89;1718706;82;21103;-56
2022/01/11 10:35:23;;;;;;;14.93;8.80;;;;;;;-0.99;64.57;99601.23;1722769;82;21106;-57
2022/01/11 10:37:54;;;;;;;14.87;9.10;;;;;;;-0.98;65.35;99603.39;1715485;82;21050;-57
2022/01/11 10:40:28;;;;;;;18.37;9.25;;;;;;;-1.02;65.34;99604.73;1718380;82;21525;-57
2022/01/11 10:42:58;;;;;;;17.95;8.93;;;;;;;-0.94;65.89;99610.02;1693877;82;21010;-57
2022/01/11 10:45:36;;;;;;;20.70;10.32;;;;;;;-0.99;65.78;99611.87;1723231;82;21552;-56
2022/01/11 10:48:12;;;;;;;15.53;9.13;;;;;;;-0.85;66.42;99609.05;1701638;82;21068;-57
2022/01/11 10:50:48;;;;;;;19.90;10.28;;;;;;;-0.86;65.39;99608.19;1657179;85;21886;-57
2022/01/11 10:53:24;;;;;;;17.12;10.08;;;;;;;-0.95;64.33;99609.19;1718617;82;20996;-57
2022/01/11 10:55:54;;;;;;;21.33;9.50;;;;;;;-0.86;65.23;99608.19;1716597;82;21020;-57
2022/01/11 10:58:22;;;;;;;26.30;11.43;;;;;;;-0.95;64.57;99613.19;1725054;82;21508;-57
2022/01/11 11:00:53;;;;;;;15.03;9.10;;;;;;;-0.80;64.81;99608.03;1719073;82;20997;-56
2022/01/11 11:03:23;;;;;;;14.58;8.73;;;;;;;-0.78;64.37;99609.19;1717717;82;21087;-56
2022/01/11 11:05:58;;;;;;;17.15;9.65;;;;;;;-0.76;64.74;99607.20;1718627;82;21059;-57
2022/01/11 11:08:30;;;;;;;18.95;9.48;;;;;;;-0.91;64.03;99615.03;1716400;82;20989;-57
2022/01/11 11:11:15;;;;;;;42.53;14.90;;;;;;;-0.94;64.38;99617.54;1717560;82;21778;-56
2022/01/11 11:13:44;;;;;;;18.05;9.08;;;;;;;-0.90;64.75;99618.85;1718830;82;20989;-57
2022/01/11 11:16:31;;;;;;;25.48;9.45;;;;;;;-1.08;64.18;99623.52;1713866;82;20961;-57
2022/01/11 11:19:00;;;;;;;25.95;12.07;;;;;;;-0.96;64.89;99624.83;1721463;82;21060;-57
2022/01/11 11:21:37;;;;;;;33.53;12.55;;;;;;;-0.79;65.12;99619.00;1725420;82;21111;-57
2022/01/11 11:24:13;;;;;;;28.65;12.15;;;;;;;-0.70;65.42;99615.83;1727432;82;21063;-56
2022/01/11 11:26:44;;;;;;;19.15;8.40;;;;;;;-0.84;63.76;99619.20;1711716;82;21064;-57
2022/01/11 11:29:11;;;;;;;18.73;9.85;;;;;;;-0.71;63.87;99613.67;1712390;82;21633;-57